Dades meteomassalio
Diari Summary for Juliol 3, 2017 Units:  Metric    English   Both
« Previous Day
Next Day »
Diari Semanal Mensual Anual Personalitzat
  Maxima: Minima: Mijana:
Temperatura: -17.8 °C -8.8 °C -4.4 °C
Rosada: -17.8 °C -12.6 °C -10.9 °C
Humitat: Humidity % 30 % 50 %
Velocitat del vent: 0 km/h 0 km/h 13.4 km/h
Racha vent: 0 km/h - -
Vent:- - SSW
Pressio: 0 hPa 34442.4 hPa -
Pluja: 0 mm    
Historical Graphs
 
 
Tabular Data for Juliol 3, 2017
Time Temperature Dew Point Pressure Wind Wind Speed Wind Gust Humidity Rainfall Rate (Hourly) solar Conditions
-17.8 °C -17.8 °C 0 hPa Calm     Humidity % 0 mm SolarRadiationWatts/m^2 W/m2 Conditions
00:03 -5.8 °C -12.6 °C 34625.2 hPa Calm     46 % 0 mm 0.0 W/m2 CLR
00:08 -6.1 °C -12.6 °C 34625.2 hPa SW 2.6 km/h 2.6 km/h 47 % 0 mm 0.0 W/m2 CLR
00:13 -6.2 °C -12.6 °C 34625.2 hPa Calm     48 % 0 mm 0.0 W/m2 CLR
00:18 -6.3 °C -12.6 °C 34625.2 hPa WSW 6 km/h 6 km/h 49 % 0 mm 0.0 W/m2 CLR
00:23 -6.4 °C -12.6 °C 34625.2 hPa WSW 10.3 km/h 10.3 km/h 49 % 0 mm 0.0 W/m2 CLR
00:28 -6.3 °C -12.2 °C 34625.2 hPa West 11.9 km/h 11.9 km/h 51 % 0 mm 0.0 W/m2 CLR
00:33 -6.3 °C -12.1 °C 34625.2 hPa West 3.1 km/h   51 % 0 mm 0.0 W/m2 CLR
00:38 -6.2 °C -12.1 °C 34625.2 hPa West 9 km/h 9 km/h 51 % 0 mm 0.0 W/m2 CLR
00:43 -6.2 °C -12 °C 34625.2 hPa West 9 km/h 9 km/h 51 % 0 mm 0.0 W/m2 CLR
00:48 -6.2 °C -11.8 °C 34625.2 hPa WSW 15.6 km/h 15.6 km/h 52 % 0 mm 0.0 W/m2 CLR
00:53 -6.2 °C -11.8 °C 34625.2 hPa West 15 km/h 15 km/h 52 % 0 mm 0.0 W/m2 CLR
00:58 -6.2 °C -11.9 °C 34635.4 hPa WSW 18.2 km/h 18.2 km/h 52 % 0 mm 0.0 W/m2 CLR
01:03 -6.2 °C -11.8 °C 34635.4 hPa WSW 9 km/h 9 km/h 53 % 0 mm 0.0 W/m2 CLR
01:08 -6.3 °C -11.8 °C 34635.4 hPa WSW 9 km/h 9 km/h 53 % 0 mm 0.0 W/m2 CLR
01:13 -6.3 °C -11.8 °C 34635.4 hPa West 11.9 km/h 11.9 km/h 53 % 0 mm 0.0 W/m2 CLR
01:18 -6.3 °C -11.7 °C 34635.4 hPa NW 32.8 km/h 32.8 km/h 54 % 0 mm 0.0 W/m2 CLR
01:23 -6.4 °C -11.7 °C 34635.4 hPa WNW 32.8 km/h 32.8 km/h 54 % 0 mm 0.0 W/m2 CLR
01:28 -6.4 °C -11.7 °C 34635.4 hPa West 17.9 km/h 17.9 km/h 54 % 0 mm 0.0 W/m2 CLR
01:33 -6.4 °C -11.8 °C 34635.4 hPa West 20.9 km/h 20.9 km/h 54 % 0 mm 0.0 W/m2 CLR
01:38 -6.4 °C -11.6 °C 34635.4 hPa WSW 26.9 km/h 26.9 km/h 55 % 0 mm 0.0 W/m2 CLR
01:43 -6.5 °C -11.7 °C 34635.4 hPa West 26.9 km/h 26.9 km/h 55 % 0 mm 0.0 W/m2 CLR
01:48 -6.5 °C -11.7 °C 34635.4 hPa WNW 25.9 km/h 25.9 km/h 55 % 0 mm 0.0 W/m2 CLR
01:53 -6.6 °C -11.8 °C 34635.4 hPa WNW 28.5 km/h 28.5 km/h 55 % 0 mm 0.0 W/m2 CLR
01:58 -6.6 °C -11.6 °C 34635.4 hPa West 32.8 km/h 32.8 km/h 56 % 0 mm 0.0 W/m2 CLR
02:03 -6.6 °C -11.6 °C 34635.4 hPa WNW 20.9 km/h 20.9 km/h 56 % 0 mm 0.0 W/m2 CLR
02:08 -6.7 °C -11.7 °C 34635.4 hPa WNW 15 km/h 22 km/h 56 % 0 mm 0.0 W/m2 CLR
02:13 -6.7 °C -11.7 °C 34635.4 hPa WSW 18.2 km/h 18.2 km/h 56 % 0 mm 0.0 W/m2 CLR
02:18 -6.7 °C -11.8 °C 34635.4 hPa West 31.1 km/h 31.1 km/h 56 % 0 mm 0.0 W/m2 CLR
02:23 -6.8 °C -11.6 °C 34635.4 hPa West 11.9 km/h 11.9 km/h 57 % 0 mm 0.0 W/m2 CLR
02:28 -6.8 °C -11.7 °C 34635.4 hPa West 31.1 km/h 31.1 km/h 57 % 0 mm 0.0 W/m2 CLR
02:33 -6.8 °C -11.7 °C 34635.4 hPa West 20.9 km/h 20.9 km/h 57 % 0 mm 0.0 W/m2 CLR
02:38 -6.8 °C -11.7 °C 34635.4 hPa West 9 km/h 9 km/h 57 % 0 mm 0.0 W/m2 CLR
02:43 -6.9 °C -11.6 °C 34635.4 hPa WSW 15 km/h 15 km/h 58 % 0 mm 0.0 W/m2 CLR
02:48 -6.9 °C -11.7 °C 34635.4 hPa WSW 23.8 km/h 23.8 km/h 58 % 0 mm 0.0 W/m2 CLR
02:53 -7 °C -11.7 °C 34635.4 hPa West 15 km/h 15 km/h 58 % 0 mm 0.0 W/m2 CLR
02:58 -7 °C -11.6 °C 34635.4 hPa West 20.9 km/h 20.9 km/h 59 % 0 mm 0.0 W/m2 CLR
03:03 -7.1 °C -11.6 °C 34635.4 hPa West 17.9 km/h 17.9 km/h 59 % 0 mm 0.0 W/m2 CLR
03:08 -7.1 °C -11.6 °C 34635.4 hPa West 20.9 km/h 20.9 km/h 59 % 0 mm 0.0 W/m2 CLR
03:13 -7.1 °C -11.7 °C 34635.4 hPa West 15 km/h 15 km/h 59 % 0 mm 0.0 W/m2 CLR
03:19 -7.1 °C -11.7 °C 34635.4 hPa West 6 km/h 6 km/h 59 % 0 mm 0.0 W/m2 CLR
03:24 -7.2 °C -11.6 °C 34635.4 hPa WNW 15 km/h 15 km/h 60 % 0 mm 0.0 W/m2 CLR
03:29 -7.1 °C -11.6 °C 34635.4 hPa WNW 29.8 km/h 29.8 km/h 60 % 0 mm 0.0 W/m2 CLR
03:34 -7.1 °C -11.5 °C 34635.4 hPa West 15.6 km/h 15.6 km/h 60 % 0 mm 0.0 W/m2 CLR
03:39 -7.2 °C -11.6 °C 34635.4 hPa West 15 km/h 15 km/h 60 % 0 mm 0.0 W/m2 CLR
03:44 -7.2 °C -11.6 °C 34635.4 hPa West 20.9 km/h 20.9 km/h 60 % 0 mm 0.0 W/m2 CLR
03:49 -7.2 °C -11.5 °C 34635.4 hPa West 15.6 km/h 15.6 km/h 61 % 0 mm 0.0 W/m2 CLR
03:54 -7.2 °C -11.5 °C 34635.4 hPa WSW 20.9 km/h 20.9 km/h 61 % 0 mm 0.0 W/m2 CLR
03:59 -7.3 °C -11.5 °C 34635.4 hPa WSW 18.2 km/h 18.2 km/h 61 % 0 mm 0.0 W/m2 CLR
04:04 -7.3 °C -11.4 °C 34635.4 hPa West 32.8 km/h 32.8 km/h 62 % 0 mm 0.0 W/m2 CLR
04:09 -7.3 °C -11.5 °C 34635.4 hPa West 29.8 km/h 29.8 km/h 62 % 0 mm 0.0 W/m2 CLR
04:14 -7.4 °C -11.6 °C 34635.4 hPa WNW 15 km/h 15 km/h 62 % 0 mm 0.0 W/m2 CLR
04:19 -7.4 °C -11.4 °C 34635.4 hPa WNW 23.8 km/h 23.8 km/h 63 % 0 mm 0.0 W/m2 CLR
04:24 -7.6 °C -11.6 °C 34635.4 hPa Calm     63 % 0 mm 0.0 W/m2 CLR
04:29 -7.6 °C -11.6 °C 34625.2 hPa WNW 9 km/h 9 km/h 63 % 0 mm 0.0 W/m2 CLR
04:34 -7.7 °C -11.5 °C 34625.2 hPa WNW 9 km/h 9 km/h 64 % 0 mm 0.0 W/m2 CLR
04:39 -7.7 °C -11.5 °C 34625.2 hPa West 10.3 km/h 10.3 km/h 64 % 0 mm 0.0 W/m2 CLR
04:44 -7.7 °C -11.5 °C 34635.4 hPa West 9 km/h 9 km/h 64 % 0 mm 0.0 W/m2 CLR
04:49 -7.7 °C -11.5 °C 34635.4 hPa West 11.9 km/h 11.9 km/h 64 % 0 mm 0.0 W/m2 CLR
04:54 -7.7 °C -11.5 °C 34635.4 hPa West 9 km/h 9 km/h 64 % 0 mm 0.0 W/m2 CLR
04:59 -7.7 °C -11.5 °C 34635.4 hPa Calm     64 % 0 mm 0.0 W/m2 CLR
05:04 -7.7 °C -11.5 °C 34635.4 hPa West 15.6 km/h 15.6 km/h 64 % 0 mm 0.0 W/m2 CLR
05:09 -7.7 °C -11.5 °C 34635.4 hPa West 20.9 km/h 20.9 km/h 64 % 0 mm 0.0 W/m2 CLR
05:14 -7.6 °C -11.5 °C 34625.2 hPa WSW 11.9 km/h 11.9 km/h 64 % 0 mm 0.0 W/m2 CLR
05:19 -7.7 °C -11.5 °C 34625.2 hPa West 11.9 km/h 11.9 km/h 64 % 0 mm 0.0 W/m2 CLR
05:24 -7.7 °C -11.6 °C 34625.2 hPa West 23.8 km/h 23.8 km/h 64 % 0 mm 0.0 W/m2 CLR
05:29 -7.7 °C -11.6 °C 34625.2 hPa SW 11.9 km/h 11.9 km/h 64 % 0 mm 0.0 W/m2 CLR
05:34 -7.7 °C -11.6 °C 34635.4 hPa Calm     64 % 0 mm 0.0 W/m2 CLR
05:39 -7.9 °C -11.6 °C 34625.2 hPa Calm     65 % 0 mm 0.0 W/m2 CLR
05:44 -7.9 °C -11.6 °C 34635.4 hPa Calm     66 % 0 mm 0.0 W/m2 CLR
05:49 -8.1 °C -11.7 °C 34635.4 hPa Calm     66 % 0 mm 0.0 W/m2 CLR
05:54 -8.2 °C -11.7 °C 34625.2 hPa Calm     66 % 0 mm 0.0 W/m2 CLR
05:59 -8.3 °C -11.7 °C 34635.4 hPa Calm     67 % 0 mm 0.0 W/m2 CLR
06:04 -8.3 °C -11.7 °C 34635.4 hPa Calm     67 % 0 mm 0.0 W/m2 CLR
06:09 -8.3 °C -11.6 °C 34635.4 hPa West 7.7 km/h 7.7 km/h 68 % 0 mm 0.0 W/m2 CLR
06:14 -8.3 °C -11.6 °C 34635.4 hPa Calm   0.3 km/h 68 % 0 mm 0.0 W/m2 CLR
06:19 -8.3 °C -11.6 °C 34635.4 hPa Calm     68 % 0 mm 0.0 W/m2 CLR
06:24 -8.3 °C -11.6 °C 34635.4 hPa Calm     68 % 0 mm 0.0 W/m2 OVC
06:29 -8.3 °C -11.6 °C 34635.4 hPa Calm     68 % 0 mm 0.0 W/m2 OVC
06:34 -8.4 °C -11.8 °C 34645.6 hPa Calm     68 % 0 mm 5.0 W/m2 OVC
06:39 -8.6 °C -11.7 °C 34645.6 hPa Calm     69 % 0 mm 7.0 W/m2 BKN
06:44 -8.7 °C -11.7 °C 34645.6 hPa Calm     70 % 0 mm 9.0 W/m2 BKN
06:49 -8.7 °C -11.8 °C 34645.6 hPa Calm     70 % 0 mm 11.0 W/m2 BKN
06:54 -8.8 °C -11.8 °C 34645.6 hPa Calm     70 % 0 mm 12.0 W/m2 BKN
06:59 -8.8 °C -11.7 °C 34645.6 hPa Calm     71 % 0 mm 14.0 W/m2 BKN
07:04 -8.7 °C -11.7 °C 34645.6 hPa Calm     71 % 0 mm 18.0 W/m2 BKN
07:09 -8.7 °C -11.6 °C 34645.6 hPa Calm     71 % 0 mm 23.0 W/m2 BKN
07:14 -8.6 °C -11.7 °C 34645.6 hPa West 9 km/h 9 km/h 70 % 0 mm 37.0 W/m2 BKN
07:19 -8.5 °C -11.6 °C 34645.6 hPa Calm     70 % 0 mm 47.0 W/m2 SCT
07:24 -8.4 °C -11.6 °C 34645.6 hPa West 9 km/h 9 km/h 69 % 0 mm 58.0 W/m2 SCT
07:29 -8.2 °C -11.4 °C 34659.1 hPa West 11.9 km/h 11.9 km/h 69 % 0 mm 69.0 W/m2 FEW
07:34 -8.2 °C -11.4 °C 34659.1 hPa WSW 15 km/h 15 km/h 68 % 0 mm 84.0 W/m2 FEW
07:39 -8 °C -11.5 °C 34659.1 hPa SW 11.9 km/h 11.9 km/h 67 % 0 mm 98.0 W/m2 FEW
07:44 -7.9 °C -11.4 °C 34659.1 hPa Calm     67 % 0 mm 114.0 W/m2 CLR
07:49 -7.9 °C -11.3 °C 34659.1 hPa SW 15 km/h 15 km/h 67 % 0 mm 128.0 W/m2 CLR
07:54 -7.8 °C -11.3 °C 34659.1 hPa SSW 9 km/h 9 km/h 67 % 0 mm 144.0 W/m2 CLR
07:59 -7.7 °C -11.3 °C 34659.1 hPa WNW 11.9 km/h 11.9 km/h 66 % 0 mm 165.0 W/m2 CLR
08:04 -7.7 °C -11.3 °C 34659.1 hPa WNW 29.8 km/h 29.8 km/h 66 % 0 mm 181.0 W/m2 CLR
08:09 -7.6 °C -11.3 °C 34659.1 hPa West 23.3 km/h 23.3 km/h 65 % 0 mm 197.0 W/m2 CLR
08:14 -7.6 °C -11.3 °C 34659.1 hPa WNW 6 km/h 6 km/h 65 % 0 mm 213.0 W/m2 CLR
08:19 -7.4 °C -11.3 °C 34659.1 hPa West 6 km/h 7.7 km/h 64 % 0 mm 229.0 W/m2 CLR
08:24 -7.4 °C -11.3 °C 34659.1 hPa West 15 km/h 15 km/h 64 % 0 mm 246.0 W/m2 CLR
08:29 -7.4 °C -11.2 °C 34659.1 hPa WSW 18.2 km/h 18.2 km/h 64 % 0 mm 262.0 W/m2 CLR
08:34 -7.3 °C -11.2 °C 34659.1 hPa West 15 km/h 15 km/h 64 % 0 mm 276.0 W/m2 CLR
08:39 -7.3 °C -11.3 °C 34659.1 hPa West 29.8 km/h 29.8 km/h 63 % 0 mm 294.0 W/m2 CLR
08:44 -7.2 °C -11.2 °C 34659.1 hPa NW 35.7 km/h 35.7 km/h 63 % 0 mm 308.0 W/m2 CLR
08:49 -7.1 °C -11.3 °C 34659.1 hPa West 38.8 km/h 38.8 km/h 62 % 0 mm 322.0 W/m2 CLR
08:54 -7.1 °C -11.2 °C 34659.1 hPa WNW 29.8 km/h 29.8 km/h 62 % 0 mm 338.0 W/m2 CLR
08:59 -7 °C -11.3 °C 34659.1 hPa WNW 29.8 km/h 29.8 km/h 61 % 0 mm 355.0 W/m2 CLR
09:04 -6.9 °C -11.2 °C 34659.1 hPa WNW 20.8 km/h 20.8 km/h 61 % 0 mm 369.0 W/m2 CLR
09:09 -6.8 °C -11.2 °C 34659.1 hPa West 18.2 km/h 18.2 km/h 61 % 0 mm 385.0 W/m2 CLR
09:14 -6.8 °C -11.1 °C 34659.1 hPa WNW 9 km/h 9 km/h 61 % 0 mm 399.0 W/m2 CLR
09:19 -6.6 °C -11.1 °C 34659.1 hPa West 11.9 km/h 11.9 km/h 60 % 0 mm 413.0 W/m2 CLR
09:24 -6.5 °C -11.1 °C 34659.1 hPa NNW 17.9 km/h 18.3 km/h 59 % 0 mm 431.0 W/m2 CLR
09:30 -6.3 °C -10.9 °C 34659.1 hPa NW 32.8 km/h 32.8 km/h 59 % 0 mm 446.0 W/m2 CLR
09:35 -6.2 °C -11 °C 34659.1 hPa NW 29.8 km/h 29.8 km/h 58 % 0 mm 461.0 W/m2 CLR
09:40 -6.1 °C -11 °C 34659.1 hPa NW 25.9 km/h 25.9 km/h 57 % 0 mm 475.0 W/m2 CLR
09:45 -6.1 °C -11 °C 34659.1 hPa NW 41.7 km/h 41.7 km/h 57 % 0 mm 492.0 W/m2 CLR
09:50 -6.1 °C -10.9 °C 34645.6 hPa NW 38.8 km/h 38.8 km/h 57 % 0 mm 506.0 W/m2 CLR
09:55 -6 °C -11.1 °C 34645.6 hPa WNW 41.7 km/h 41.7 km/h 56 % 0 mm 520.0 W/m2 CLR
10:00 -5.9 °C -11 °C 34645.6 hPa NW 28.5 km/h 28.5 km/h 56 % 0 mm 534.0 W/m2 CLR
10:05 -5.8 °C -10.9 °C 34645.6 hPa WNW 15 km/h 15 km/h 56 % 0 mm 548.0 W/m2 CLR
10:10 -5.7 °C -10.9 °C 34645.6 hPa NW 29.8 km/h 29.8 km/h 55 % 0 mm 564.0 W/m2 CLR
10:12 -5.6 °C -10.8 °C 34645.6 hPa NW 26.9 km/h 26.9 km/h 55 % 0 mm 573.0 W/m2 CLR
10:17 -5.6 °C -11 °C 34645.6 hPa NW 29.8 km/h 29.8 km/h 54 % 0 mm 587.0 W/m2 CLR
10:22 -5.5 °C -10.9 °C 34645.6 hPa WNW 26.9 km/h 26.9 km/h 54 % 0 mm 601.0 W/m2 CLR
10:28 -5.4 °C -10.8 °C 34635.4 hPa NNW 11.9 km/h 11.9 km/h 54 % 0 mm 613.0 W/m2 CLR
10:33 -5.2 °C -10.8 °C 34635.4 hPa NW 6 km/h 6 km/h 53 % 0 mm 629.0 W/m2 CLR
10:38 -5.2 °C -10.8 °C 34635.4 hPa WNW 9 km/h 9 km/h 53 % 0 mm 643.0 W/m2 CLR
10:43 -5.2 °C -10.9 °C 34635.4 hPa NNW 29.8 km/h 29.8 km/h 52 % 0 mm 656.0 W/m2 CLR
10:48 -5.2 °C -10.9 °C 34635.4 hPa NW 29.8 km/h 29.8 km/h 52 % 0 mm 668.0 W/m2 CLR
10:53 -5.1 °C -10.9 °C 34625.2 hPa West 26.9 km/h 26.9 km/h 52 % 0 mm 682.0 W/m2 CLR
10:58 -4.9 °C -10.9 °C 34635.4 hPa West 29.8 km/h 29.8 km/h 51 % 0 mm 694.0 W/m2 CLR
11:03 -4.9 °C -10.7 °C 34625.2 hPa NW 32.8 km/h 32.8 km/h 52 % 0 mm 707.0 W/m2 CLR
11:08 -4.7 °C -10.8 °C 34625.2 hPa NW 23.8 km/h 23.8 km/h 50 % 0 mm 717.0 W/m2 CLR
11:13 -4.6 °C -10.8 °C 34625.2 hPa NNW 29.8 km/h 29.8 km/h 50 % 0 mm 728.0 W/m2 CLR
11:18 -4.7 °C -10.8 °C 34625.2 hPa North 9 km/h 9 km/h 50 % 0 mm 740.0 W/m2 CLR
11:23 -4.5 °C -10.7 °C 34625.2 hPa West 11.9 km/h 11.9 km/h 50 % 0 mm 751.0 W/m2 CLR
11:28 -4.4 °C -10.7 °C 34625.2 hPa WNW 29.8 km/h 29.8 km/h 49 % 0 mm 763.0 W/m2 CLR
11:33 -4.4 °C -10.8 °C 34625.2 hPa NW 29.8 km/h 29.8 km/h 49 % 0 mm 772.0 W/m2 CLR
11:38 -4.4 °C -10.7 °C 34611.7 hPa WNW 11.9 km/h 11.9 km/h 49 % 0 mm 786.0 W/m2 CLR
11:43 -4.4 °C -10.8 °C 34611.7 hPa NW 29.8 km/h 29.8 km/h 49 % 0 mm 796.0 W/m2 CLR
11:48 -4.5 °C -10.8 °C 34611.7 hPa WSW 11.9 km/h 11.9 km/h 49 % 0 mm 803.0 W/m2 CLR
11:53 -4.3 °C -10.8 °C 34611.7 hPa WNW 32.8 km/h 32.8 km/h 48 % 0 mm 812.0 W/m2 CLR
11:58 -4.1 °C -10.7 °C 34611.7 hPa NNW 29.8 km/h 29.8 km/h 48 % 0 mm 824.0 W/m2 CLR
12:03 -4.1 °C -10.8 °C 34611.7 hPa West 20.8 km/h 20.8 km/h 47 % 0 mm 831.0 W/m2 CLR
12:08 -4.1 °C -10.6 °C 34611.7 hPa NNW 29.8 km/h 29.8 km/h 48 % 0 mm 838.0 W/m2 CLR
12:13 -3.7 °C -10.8 °C 34601.5 hPa WNW 32.8 km/h 32.8 km/h 45 % 0 mm 849.0 W/m2 CLR
12:18 -3.9 °C -10.8 °C 34601.5 hPa West 23.8 km/h 23.8 km/h 46 % 0 mm 856.0 W/m2 CLR
12:23 -3.9 °C -10.7 °C 34601.5 hPa NNW 23.8 km/h 23.8 km/h 47 % 0 mm 865.0 W/m2 CLR
12:28 -3.8 °C -10.7 °C 34601.5 hPa North 9 km/h 9 km/h 46 % 0 mm 872.0 W/m2 CLR
12:33 -3.6 °C -10.7 °C 34601.5 hPa Calm     45 % 0 mm 881.0 W/m2 CLR
12:38 -3.3 °C -10.7 °C 34601.5 hPa NE 9 km/h 9 km/h 44 % 0 mm 886.0 W/m2 CLR
12:43 -3.3 °C -10.7 °C 34601.5 hPa WSW 11.9 km/h 11.9 km/h 44 % 0 mm 895.0 W/m2 CLR
12:48 -3.2 °C -10.8 °C 34601.5 hPa NW 11.9 km/h 11.9 km/h 43 % 0 mm 895.0 W/m2 CLR
12:53 -3.2 °C -10.7 °C 34591.4 hPa NW 29.8 km/h 29.8 km/h 43 % 0 mm 904.0 W/m2 CLR
12:58 -3.2 °C -10.7 °C 34591.4 hPa North 20.9 km/h 20.9 km/h 43 % 0 mm 911.0 W/m2 CLR
13:03 -3.2 °C -10.7 °C 34591.4 hPa WSW 6 km/h 6 km/h 43 % 0 mm 914.0 W/m2 CLR
13:08 -3.1 °C -10.8 °C 34591.4 hPa NE 6 km/h 6 km/h 42 % 0 mm 919.0 W/m2 CLR
13:13 -2.9 °C -10.7 °C 34591.4 hPa WNW 11.9 km/h 11.9 km/h 42 % 0 mm 925.0 W/m2 CLR
13:18 -2.7 °C -10.7 °C 34591.4 hPa NW 11.9 km/h   41 % 0 mm 928.0 W/m2 CLR
13:23 -2.6 °C -10.6 °C 34591.4 hPa NNW 26.9 km/h 26.9 km/h 41 % 0 mm 930.0 W/m2 CLR
13:28 -2.6 °C -10.8 °C 34591.4 hPa NNW 26.9 km/h 26.9 km/h 40 % 0 mm 935.0 W/m2 CLR
13:33 -2.7 °C -10.9 °C 34577.8 hPa Calm     40 % 0 mm 937.0 W/m2 CLR
13:38 -2.6 °C -10.8 °C 34577.8 hPa Calm     40 % 0 mm 940.0 W/m2 CLR
13:43 -2.4 °C -10.7 °C 34577.8 hPa North 11.9 km/h 11.9 km/h 40 % 0 mm 946.0 W/m2 CLR
13:48 -2.3 °C -10.8 °C 34577.8 hPa ENE 12.9 km/h 12.9 km/h 39 % 0 mm 944.0 W/m2 CLR
13:53 -2.3 °C -10.8 °C 34567.7 hPa Calm     39 % 0 mm 947.0 W/m2 CLR
13:58 -2.3 °C -10.7 °C 34567.7 hPa NNE 29.8 km/h 29.8 km/h 39 % 0 mm 944.0 W/m2 CLR
14:03 -2.2 °C -10.7 °C 34567.7 hPa NNE 6 km/h   39 % 0 mm 946.0 W/m2 CLR
14:08 -2.1 °C -10.8 °C 34567.7 hPa North 15 km/h 15 km/h 38 % 0 mm 947.0 W/m2 CLR
14:13 -2.1 °C -10.6 °C 34554.1 hPa Calm     39 % 0 mm 947.0 W/m2 CLR
14:18 -1.8 °C -10.6 °C 34554.1 hPa Calm     38 % 0 mm 944.0 W/m2 CLR
14:23 -1.8 °C -10.8 °C 34554.1 hPa NNW 20.9 km/h 20.9 km/h 37 % 0 mm 946.0 W/m2 CLR
14:28 -2 °C -10.7 °C 34554.1 hPa North 7.7 km/h 7.7 km/h 38 % 0 mm 942.0 W/m2 CLR
14:33 -2 °C -10.9 °C 34554.1 hPa North 9 km/h 9 km/h 37 % 0 mm 940.0 W/m2 CLR
14:38 -2 °C -10.9 °C 34544 hPa Calm     37 % 0 mm 937.0 W/m2 CLR
14:43 -1.7 °C -10.7 °C 34544 hPa East 3.1 km/h   37 % 0 mm 935.0 W/m2 CLR
14:48 -1.5 °C -10.7 °C 34544 hPa NE 9 km/h   36 % 0 mm 935.0 W/m2 CLR
14:53 -1.4 °C -10.9 °C 34544 hPa Calm     35 % 0 mm 928.0 W/m2 CLR
14:58 -1.6 °C -11 °C 34544 hPa Calm     35 % 0 mm 925.0 W/m2 CLR
15:03 -1.3 °C -10.6 °C 34533.8 hPa NNE 11.9 km/h 11.9 km/h 36 % 0 mm 925.0 W/m2 CLR
15:08 -1.2 °C -10.7 °C 34533.8 hPa Calm     35 % 0 mm 918.0 W/m2 CLR
15:13 -1.1 °C -10.6 °C 34533.8 hPa NNE 15 km/h 15 km/h 35 % 0 mm 911.0 W/m2 CLR
15:18 -1.1 °C -10.9 °C 34533.8 hPa ENE 15 km/h 15 km/h 34 % 0 mm 905.0 W/m2 CLR
15:23 -1.2 °C -11 °C 34520.3 hPa NNE 9 km/h 9 km/h 34 % 0 mm 900.0 W/m2 CLR
15:28 -1.2 °C -11 °C 34520.3 hPa Calm     34 % 0 mm 893.0 W/m2 CLR
15:33 -1.2 °C -10.9 °C 34520.3 hPa East 7.7 km/h 7.7 km/h 34 % 0 mm 888.0 W/m2 CLR
15:38 -1.1 °C -10.9 °C 34520.3 hPa NE 11.9 km/h 11.9 km/h 34 % 0 mm 881.0 W/m2 CLR
15:43 -1 °C -10.8 °C 34510.1 hPa ENE 20.9 km/h 20.9 km/h 34 % 0 mm 874.0 W/m2 CLR
15:48 -0.9 °C -10.7 °C 34510.1 hPa Calm     34 % 0 mm 865.0 W/m2 CLR
15:53 -0.8 °C -10.6 °C 34510.1 hPa NE 10.3 km/h 10.3 km/h 34 % 0 mm 858.0 W/m2 CLR
15:58 -0.8 °C -10.6 °C 34510.1 hPa ENE 12.9 km/h 12.9 km/h 34 % 0 mm 851.0 W/m2 CLR
16:03 -0.8 °C -10.9 °C 34510.1 hPa ENE 10.3 km/h 10.3 km/h 33 % 0 mm 842.0 W/m2 CLR
16:08 -0.8 °C -10.8 °C 34510.1 hPa ENE 9 km/h 9 km/h 33 % 0 mm 831.0 W/m2 CLR
16:13 -0.8 °C -10.6 °C 34496.6 hPa East 6 km/h 6.4 km/h 34 % 0 mm 823.0 W/m2 CLR
16:18 -0.9 °C -10.7 °C 34496.6 hPa Calm     34 % 0 mm 800.0 W/m2 CLR
16:23 -0.7 °C -10.5 °C 34496.6 hPa NE 26.9 km/h 26.9 km/h 34 % 0 mm 803.0 W/m2 CLR
16:28 -0.7 °C -10.7 °C 34496.6 hPa NE 20.9 km/h 20.9 km/h 33 % 0 mm 793.0 W/m2 CLR
16:33 -0.8 °C -10.6 °C 34496.6 hPa ENE 15 km/h 15 km/h 34 % 0 mm 786.0 W/m2 CLR
16:38 -0.8 °C -10.6 °C 34496.6 hPa NE 9 km/h 9 km/h 34 % 0 mm 773.0 W/m2 CLR
16:43 -0.8 °C -10.6 °C 34496.6 hPa ENE 26.9 km/h 26.9 km/h 34 % 0 mm 761.0 W/m2 CLR
16:48 -0.7 °C -10.8 °C 34496.6 hPa ENE 9 km/h 9 km/h 33 % 0 mm 749.0 W/m2 CLR
16:53 -0.7 °C -10.7 °C 34486.4 hPa ENE 9 km/h 9 km/h 33 % 0 mm 740.0 W/m2 CLR
16:58 -0.6 °C -10.7 °C 34486.4 hPa Calm     33 % 0 mm 726.0 W/m2 CLR
17:03 -0.4 °C -10.8 °C 34486.4 hPa ENE 9 km/h 9 km/h 32 % 0 mm 714.0 W/m2 CLR
17:08 -0.4 °C -10.7 °C 34486.4 hPa East 15 km/h 15 km/h 32 % 0 mm 705.0 W/m2 CLR
17:13 -0.4 °C -10.7 °C 34486.4 hPa NNE 11.9 km/h   32 % 0 mm 693.0 W/m2 CLR
17:18 -0.3 °C -10.7 °C 34486.4 hPa ENE 3.1 km/h   32 % 0 mm 680.0 W/m2 CLR
17:23 -0.3 °C -10.7 °C 34486.4 hPa Calm     32 % 0 mm 666.0 W/m2 CLR
17:28 -0.5 °C -10.9 °C 34476.3 hPa NE 26.9 km/h 26.9 km/h 32 % 0 mm 652.0 W/m2 CLR
17:34 -0.4 °C -10.8 °C 34476.3 hPa Calm     32 % 0 mm 638.0 W/m2 CLR
17:39 -0.4 °C -10.8 °C 34476.3 hPa ENE 11.9 km/h 11.9 km/h 32 % 0 mm 628.0 W/m2 CLR
17:44 -0.5 °C -10.9 °C 34476.3 hPa ENE 9 km/h 9 km/h 32 % 0 mm 610.0 W/m2 CLR
17:49 -0.4 °C -10.7 °C 34462.7 hPa ENE 9 km/h 9 km/h 32 % 0 mm 598.0 W/m2 CLR
17:54 -0.4 °C -10.7 °C 34462.7 hPa NE 11.9 km/h   32 % 0 mm 585.0 W/m2 CLR
17:59 -0.3 °C -10.9 °C 34462.7 hPa NE 17.9 km/h 17.9 km/h 31 % 0 mm 568.0 W/m2 CLR
18:04 -0.2 °C -10.9 °C 34462.7 hPa NE 6 km/h 6 km/h 31 % 0 mm 555.0 W/m2 CLR
18:09 -0.1 °C -10.8 °C 34462.7 hPa Calm     31 % 0 mm 541.0 W/m2 CLR
18:14 -0.1 °C -10.7 °C 34462.7 hPa Calm     31 % 0 mm 526.0 W/m2 CLR
18:19 -0.1 °C -10.7 °C 34452.6 hPa NE 12.9 km/h 12.9 km/h 31 % 0 mm 510.0 W/m2 CLR
18:24 -0.1 °C -10.7 °C 34452.6 hPa ENE 7.7 km/h 7.7 km/h 31 % 0 mm 496.0 W/m2 CLR
18:29 -0.2 °C -10.9 °C 34452.6 hPa Calm     31 % 0 mm 482.0 W/m2 CLR
18:34 -0.2 °C -10.9 °C 34452.6 hPa NE 20.9 km/h 20.9 km/h 31 % 0 mm 469.0 W/m2 CLR
18:39 -0.2 °C -10.9 °C 34452.6 hPa NE 6 km/h   31 % 0 mm 450.0 W/m2 CLR
18:44 -0.2 °C -10.9 °C 34452.6 hPa NNE 23.3 km/h 23.3 km/h 31 % 0 mm 434.0 W/m2 CLR
18:49 -0.2 °C -10.9 °C 34452.6 hPa NE 6 km/h   31 % 0 mm 422.0 W/m2 CLR
18:54 -0.2 °C -10.9 °C 34452.6 hPa Calm     31 % 0 mm 406.0 W/m2 CLR
18:59 -0.2 °C -10.8 °C 34452.6 hPa NE 20.9 km/h 20.9 km/h 31 % 0 mm 390.0 W/m2 CLR
19:04 -0.2 °C -11.1 °C 34452.6 hPa NNE 15.6 km/h 15.6 km/h 30 % 0 mm 374.0 W/m2 CLR
19:09 -0.2 °C -11.2 °C 34452.6 hPa ENE 10.3 km/h 10.3 km/h 30 % 0 mm 359.0 W/m2 CLR
19:14 -0.2 °C -11.2 °C 34452.6 hPa NE 9 km/h 9 km/h 30 % 0 mm 345.0 W/m2 CLR
19:19 -0.2 °C -11.2 °C 34452.6 hPa Calm   0.5 km/h 30 % 0 mm 329.0 W/m2 CLR
19:24 -0.4 °C -11.3 °C 34452.6 hPa SE 7.7 km/h   30 % 0 mm 311.0 W/m2 CLR
19:29 -0.5 °C -11.4 °C 34452.6 hPa Calm     30 % 0 mm 297.0 W/m2 CLR
19:34 -0.5 °C -10.9 °C 34452.6 hPa East 9 km/h 9 km/h 32 % 0 mm 281.0 W/m2 CLR
19:39 -0.6 °C -9.9 °C 34452.6 hPa ESE 11.9 km/h 11.9 km/h 36 % 0 mm 267.0 W/m2 CLR
19:44 -0.8 °C -10.1 °C 34452.6 hPa SE 9 km/h 9 km/h 36 % 0 mm 250.0 W/m2 CLR
19:49 -0.8 °C -10.2 °C 34452.6 hPa ESE 9 km/h   36 % 0 mm 234.0 W/m2 CLR
19:54 -0.9 °C -9.9 °C 34442.4 hPa SSE 23.3 km/h 23.3 km/h 37 % 0 mm 218.0 W/m2 CLR
19:59 -1.1 °C -9.7 °C 34452.6 hPa ESE 26.9 km/h 26.9 km/h 39 % 0 mm 202.0 W/m2 CLR
20:04 -1.2 °C -9.6 °C 34452.6 hPa SE 17.9 km/h 17.9 km/h 40 % 0 mm 185.0 W/m2 CLR
20:09 -1.3 °C -9.4 °C 34452.6 hPa SE 29.8 km/h 29.8 km/h 41 % 0 mm 167.0 W/m2 CLR
20:14 -1.3 °C -9.3 °C 34452.6 hPa SE 17.9 km/h 17.9 km/h 42 % 0 mm 149.0 W/m2 CLR
20:20 -1.4 °C -9.2 °C 34452.6 hPa East 23.8 km/h 23.8 km/h 43 % 0 mm 134.0 W/m2 CLR
20:25 -1.6 °C -9.3 °C 34452.6 hPa SE 20.9 km/h 20.9 km/h 43 % 0 mm 120.0 W/m2 CLR
20:30 -1.6 °C -9.3 °C 34452.6 hPa ESE 26.9 km/h 26.9 km/h 43 % 0 mm 102.0 W/m2 CLR
20:35 -1.7 °C -9.2 °C 34452.6 hPa SE 23.3 km/h 23.3 km/h 44 % 0 mm 88.0 W/m2 CLR
20:40 -1.8 °C -9.3 °C 34452.6 hPa SE 18.2 km/h 18.2 km/h 44 % 0 mm 76.0 W/m2 FEW
20:45 -1.8 °C -9.1 °C 34452.6 hPa ESE 17.9 km/h 17.9 km/h 45 % 0 mm 63.0 W/m2 SCT
20:50 -1.9 °C -9.2 °C 34452.6 hPa ESE 23.8 km/h 23.8 km/h 45 % 0 mm 21.0 W/m2 BKN
20:55 -2 °C -9.1 °C 34452.6 hPa SE 10.3 km/h 10.3 km/h 46 % 0 mm 37.0 W/m2 BKN
21:00 -2.1 °C -9.1 °C 34452.6 hPa East 20.9 km/h 20.9 km/h 46 % 0 mm 28.0 W/m2 BKN
21:05 -2.1 °C -9 °C 34452.6 hPa ESE 20.9 km/h 20.9 km/h 47 % 0 mm 21.0 W/m2 BKN
21:10 -2.2 °C -9.1 °C 34452.6 hPa ESE 15 km/h 15 km/h 47 % 0 mm 14.0 W/m2 BKN
21:15 -2.3 °C -9.1 °C 34452.6 hPa SE 17.9 km/h 17.9 km/h 47 % 0 mm 12.0 W/m2 BKN
21:20 -2.3 °C -9.2 °C 34452.6 hPa SE 15 km/h 15 km/h 47 % 0 mm 11.0 W/m2 BKN
21:25 -2.4 °C -9.1 °C 34462.7 hPa SSE 11.9 km/h 11.9 km/h 48 % 0 mm 9.0 W/m2 BKN
21:30 -2.4 °C -9.1 °C 34462.7 hPa ESE 15 km/h 15 km/h 48 % 0 mm 7.0 W/m2 BKN
21:35 -2.6 °C -9.2 °C 34462.7 hPa SSE 18.2 km/h 18.2 km/h 48 % 0 mm 5.0 W/m2 OVC
21:40 -2.6 °C -9.1 °C 34462.7 hPa SE 11.9 km/h 11.9 km/h 49 % 0 mm 0.0 W/m2 OVC
21:45 -2.7 °C -9.1 °C 34462.7 hPa SE 11.9 km/h 11.9 km/h 49 % 0 mm 0.0 W/m2 OVC
21:50 -2.7 °C -9.2 °C 34462.7 hPa Calm     49 % 0 mm 0.0 W/m2 CLR
21:55 -2.8 °C -9.1 °C 34462.7 hPa Calm     50 % 0 mm 0.0 W/m2 CLR
22:00 -2.9 °C -9.2 °C 34462.7 hPa Calm     50 % 0 mm 0.0 W/m2 CLR
22:05 -3.1 °C -9.2 °C 34462.7 hPa Calm     51 % 0 mm 0.0 W/m2 CLR
22:10 -3.2 °C -9.1 °C 34462.7 hPa Calm     52 % 0 mm 0.0 W/m2 CLR
22:15 -3.3 °C -9.1 °C 34476.3 hPa Calm     53 % 0 mm 0.0 W/m2 CLR
22:20 -3.4 °C -9.2 °C 34476.3 hPa Calm     53 % 0 mm 0.0 W/m2 CLR
22:25 -3.4 °C -9.2 °C 34476.3 hPa Calm     53 % 0 mm 0.0 W/m2 CLR
22:30 -3.5 °C -9.2 °C 34476.3 hPa Calm     53 % 0 mm 0.0 W/m2 CLR
22:35 -3.6 °C -9.3 °C 34476.3 hPa Calm     53 % 0 mm 0.0 W/m2 CLR
22:40 -3.7 °C -9.4 °C 34476.3 hPa Calm     53 % 0 mm 0.0 W/m2 CLR
22:45 -3.7 °C -9.3 °C 34476.3 hPa SE 9 km/h 9 km/h 54 % 0 mm 0.0 W/m2 CLR
22:50 -3.7 °C -9.3 °C 34476.3 hPa SSE 6 km/h 6 km/h 54 % 0 mm 0.0 W/m2 CLR
22:55 -3.7 °C -9.3 °C 34476.3 hPa ESE 9 km/h 9 km/h 54 % 0 mm 0.0 W/m2 CLR
23:00 -3.8 °C -9.3 °C 34476.3 hPa ESE 9 km/h 9 km/h 54 % 0 mm 0.0 W/m2 CLR
23:05 -3.8 °C -9.4 °C 34476.3 hPa ESE 15 km/h 15 km/h 54 % 0 mm 0.0 W/m2 CLR
23:10 -4 °C -9.3 °C 34486.4 hPa ESE 10.3 km/h 10.3 km/h 55 % 0 mm 0.0 W/m2 CLR
23:15 -4.1 °C -9.3 °C 34486.4 hPa SE 11.9 km/h 11.9 km/h 56 % 0 mm 0.0 W/m2 CLR
23:20 -4.1 °C -9.3 °C 34476.3 hPa Calm     56 % 0 mm 0.0 W/m2 CLR
23:25 -4.2 °C -9.3 °C 34486.4 hPa Calm     56 % 0 mm 0.0 W/m2 CLR
23:30 -4.2 °C -9.4 °C 34486.4 hPa Calm     56 % 0 mm 0.0 W/m2 CLR
23:35 -4.3 °C -9.3 °C 34486.4 hPa Calm     57 % 0 mm 0.0 W/m2 CLR
23:40 -4.4 °C -9.4 °C 34486.4 hPa Calm     57 % 0 mm 0.0 W/m2 CLR
23:46 -4.6 °C -9.5 °C 34486.4 hPa Calm     58 % 0 mm 0.0 W/m2 CLR
23:50 -4.7 °C -9.4 °C 34486.4 hPa Calm     59 % 0 mm 0.0 W/m2 CLR
23:55 -4.7 °C -9.4 °C 34486.4 hPa Calm     59 % 0 mm 0.0 W/m2 CLR
Lo Temps de Massalio
Compliments of Weather Underground - 1.25 mb